X  Tanca Dades meteorològiques de l'aviació METAR     EHAM Amsterdam Airport Schiphol
Temperatura
14°C Temperatura
8°C Rosada
67% Humitat



Vent
21 KM/H
13 MPH
6 M/S
11 NUS



280°
Oest
Condicions actuals

Majoritàriament núvols dispersos Majoritàriament núvols dispersos
Pressió 1010.92 (hPa) - 29.85 (inHg)
Visibilitat 6.2 (milla) - 10 (km)
Aeroport
Codi aeroport EHAM

Ubicació: Amsterdam Airport Schiphol
Distància: 20 (km)

Metar:
EHAM 180925Z 28011KT 250V320 9999 SCT020 14/08 Q1011 NOSIG

Temps: 18-05-2021 11:25 CEST